Sint-Michielsgestel, Netherlands
Current Conditions -  °F | °C
As of 3:05 AM on Friday 21 Nov 2014 (Local Time) from EHEH Reporting Station
Haze Haze  
Wind Chill: 33°   Ceiling: Unl
Heat Index: 37°   Visibility: 2.1mi
Dew Point: 37°   Wind: 6mph
Humidity: 100%   Direction: 60°ENE
Pressure: 30.24"   Gusts: NA
Location:  51.64°N, 5.35°E
Report Text: EHEH 210205Z AUTO 06005KT 3500 BR NCD 03/03 Q1024 YLO
Loading
Personal Weather Stations






























Interactive Weather Map New forecast layout! Learn more

10-Day Weather Forecast

Advertisements
Track Severe Weather on mobile